createdAt,value
2018-04-16T00:02:48.498Z,5.81
2018-04-16T00:08:39.361Z,5.62
2018-04-16T00:14:30.213Z,5.55
2018-04-16T00:20:21.156Z,5.54
2018-04-16T00:26:12.034Z,5.33
2018-04-16T00:32:03.017Z,5.46
2018-04-16T00:37:53.854Z,5.94
2018-04-16T00:43:44.739Z,5.86
2018-04-16T00:49:35.657Z,5.36
2018-04-16T00:55:26.546Z,5.05
2018-04-16T01:01:17.407Z,5.34
2018-04-16T01:07:08.341Z,5.82
2018-04-16T01:12:59.269Z,6.22
2018-04-16T01:18:50.133Z,7.02
2018-04-16T01:24:41.046Z,6.11
2018-04-16T01:30:31.939Z,6.34
2018-04-16T01:36:22.820Z,6.57
2018-04-16T01:42:13.786Z,5.68
2018-04-16T01:48:04.668Z,6.29
2018-04-16T01:53:55.562Z,6.59
2018-04-16T01:59:46.413Z,6.32
2018-04-16T02:05:37.297Z,6.54
2018-04-16T02:11:28.241Z,5.57
2018-04-16T02:17:19.112Z,6.18
2018-04-16T02:23:10.008Z,6.84
2018-04-16T02:29:00.886Z,6.04
2018-04-16T02:34:51.835Z,6.56
2018-04-16T02:40:42.687Z,6.11
2018-04-16T02:46:33.605Z,6.29
2018-04-16T02:52:24.485Z,6.93
2018-04-16T02:58:15.366Z,6.32
2018-04-16T03:04:06.279Z,5.93
2018-04-16T03:09:57.228Z,5.6
2018-04-16T03:15:48.088Z,6.16
2018-04-16T03:21:38.985Z,5.8
2018-04-16T03:27:29.896Z,6.56
2018-04-16T03:33:20.802Z,6.26
2018-04-16T03:39:11.735Z,6
2018-04-16T03:45:02.573Z,5.67
2018-04-16T03:50:53.520Z,6.49
2018-04-16T03:56:44.419Z,5.24
2018-04-16T04:02:35.291Z,5.76
2018-04-16T04:08:26.234Z,6.66
2018-04-16T04:14:17.083Z,6.29
2018-04-16T04:20:08.002Z,6.82
2018-04-16T04:25:58.885Z,6.85
2018-04-16T04:31:49.821Z,6.5
2018-04-16T04:37:40.707Z,7.08
2018-04-16T04:43:31.605Z,6.7
2018-04-16T04:49:22.483Z,6.14
2018-04-16T04:55:13.406Z,5.6
2018-04-16T05:01:04.314Z,5.85
2018-04-16T05:06:55.211Z,5.1
2018-04-16T05:12:46.113Z,6.04
2018-04-16T05:18:36.989Z,6.11
2018-04-16T05:24:27.892Z,6.7
2018-04-16T05:30:18.830Z,7.78
2018-04-16T05:36:09.685Z,7.57
2018-04-16T05:42:00.583Z,7.91
2018-04-16T05:47:51.478Z,7.26
2018-04-16T05:53:42.393Z,7.95
2018-04-16T05:59:33.287Z,8
2018-04-16T06:05:24.164Z,9.41
2018-04-16T06:11:15.036Z,10.15
2018-04-16T06:17:05.950Z,11.48
2018-04-16T06:22:56.769Z,12.48
2018-04-16T06:28:47.690Z,13.5
2018-04-16T06:34:38.566Z,14.21
2018-04-16T06:40:29.466Z,16.65
2018-04-16T06:46:20.351Z,18.6
2018-04-16T06:52:11.280Z,17.64
2018-04-16T06:58:02.135Z,10.48
2018-04-16T07:03:53.024Z,17.45
2018-04-16T07:09:43.947Z,17.72
2018-04-16T07:15:34.791Z,15.44
2018-04-16T07:21:25.739Z,13.47
2018-04-16T07:27:16.625Z,15.31
2018-04-16T07:33:07.552Z,13.68
2018-04-16T07:38:58.424Z,16.08
2018-04-16T07:44:49.330Z,20.18
2018-04-16T07:50:40.208Z,22.77
2018-04-16T07:56:31.122Z,16.46
2018-04-16T08:02:21.975Z,17.56
2018-04-16T08:08:12.900Z,19.49
2018-04-16T08:14:03.829Z,16.32
2018-04-16T08:19:54.755Z,12.42
2018-04-16T08:25:45.613Z,10.82
2018-04-16T08:31:36.529Z,9.54
2018-04-16T08:37:27.376Z,12.65
2018-04-16T08:43:18.280Z,9.42
2018-04-16T08:49:09.147Z,8.22
2018-04-16T08:55:00.159Z,8.11
2018-04-16T09:00:50.976Z,7.54
2018-04-16T09:06:41.896Z,8.33
2018-04-16T09:12:32.816Z,9.54
2018-04-16T09:18:23.652Z,8.22
2018-04-16T09:24:14.537Z,8.68
2018-04-16T09:30:05.444Z,9.21
2018-04-16T09:35:56.370Z,8.29
2018-04-16T09:41:47.326Z,7.34
2018-04-16T09:47:38.122Z,6.97
2018-04-16T09:53:29.102Z,8.62
2018-04-16T09:59:19.942Z,8.21
2018-04-16T10:05:10.874Z,10.48
2018-04-16T10:11:01.845Z,8
2018-04-16T10:16:52.671Z,10.32
2018-04-16T10:22:43.528Z,7.54
2018-04-16T10:28:34.438Z,8.96
2018-04-16T10:34:25.346Z,10.95
2018-04-16T10:40:16.264Z,9.18
2018-04-16T10:46:07.150Z,9.45
2018-04-16T10:51:58.038Z,8.95
2018-04-16T10:57:48.907Z,9.88
2018-04-16T11:03:39.935Z,9.85
2018-04-16T11:09:30.721Z,8.61
2018-04-16T11:15:21.682Z,8.41
2018-04-16T11:21:12.527Z,8.57
2018-04-16T11:27:03.387Z,7.93
2018-04-16T11:32:58.390Z,8
2018-04-16T11:38:45.210Z,8.24
2018-04-16T11:44:36.116Z,8.26
2018-04-16T11:50:26.968Z,7.78
2018-04-16T11:56:17.866Z,7.2
2018-04-16T12:02:08.799Z,7.14
2018-04-16T12:07:59.707Z,8.31
2018-04-16T12:13:50.528Z,7.3
2018-04-16T12:19:41.482Z,7.75
2018-04-16T12:25:32.375Z,6.6
2018-04-16T12:31:23.308Z,8.57
2018-04-16T12:37:14.189Z,8.24
2018-04-16T12:43:05.061Z,7.65
2018-04-16T12:48:55.989Z,7.97
2018-04-16T12:54:46.838Z,9.24
2018-04-16T13:00:37.768Z,6.54
2018-04-16T13:06:28.757Z,6.16
2018-04-16T13:12:19.612Z,5.47
2018-04-16T13:18:10.424Z,6.3
2018-04-16T13:24:01.362Z,5.79
2018-04-16T13:29:52.362Z,7.21
2018-04-16T13:35:43.179Z,6.8
2018-04-16T13:41:34.079Z,6.51
2018-04-16T13:47:24.996Z,6.02
2018-04-16T13:53:15.855Z,6.08
2018-04-16T13:59:06.745Z,5.44
2018-04-16T14:04:57.680Z,6.46
2018-04-16T14:10:48.549Z,6.76
2018-04-16T14:16:39.439Z,6.65
2018-04-16T14:22:30.353Z,6.01
2018-04-16T14:28:21.222Z,5.86
2018-04-16T14:34:12.144Z,6.18
2018-04-16T14:40:03.037Z,5.45
2018-04-16T14:45:53.963Z,5.41
2018-04-16T14:51:44.861Z,6.95
2018-04-16T14:57:35.808Z,5.89
2018-04-16T15:03:26.769Z,6.5
2018-04-16T15:09:17.593Z,7.37
2018-04-16T15:15:08.456Z,5.68
2018-04-16T15:20:59.391Z,5.85
2018-04-16T15:26:50.263Z,5.61
2018-04-16T15:32:41.246Z,5.4
2018-04-16T15:38:32.050Z,5.62
2018-04-16T15:44:23.009Z,5.88
2018-04-16T15:50:13.858Z,6.33
2018-04-16T15:56:04.807Z,5.43
2018-04-16T16:01:55.683Z,6.28
2018-04-16T16:07:46.607Z,5.63
2018-04-16T16:13:37.472Z,5.28
2018-04-16T16:19:28.393Z,5.74
2018-04-16T16:25:19.333Z,5.64
2018-04-16T16:31:10.187Z,5.39
2018-04-16T16:37:01.115Z,6.66
2018-04-16T16:42:51.981Z,6.09
2018-04-16T16:48:42.931Z,6.6
2018-04-16T16:54:33.797Z,6.26
2018-04-16T17:00:24.715Z,6.53
2018-04-16T17:06:16.644Z,7.07
2018-04-16T17:12:06.531Z,6.8
2018-04-16T17:17:57.431Z,7.2
2018-04-16T17:23:48.328Z,7.53
2018-04-16T17:29:39.243Z,8.68
2018-04-16T17:35:30.166Z,6.96
2018-04-16T17:41:21.066Z,8.97
2018-04-16T17:47:11.932Z,7.32
2018-04-16T17:53:02.879Z,7.94
2018-04-16T17:58:53.782Z,10.75
2018-04-16T18:04:44.647Z,12.9
2018-04-16T18:10:35.631Z,8.2
2018-04-16T18:16:26.572Z,7.97
2018-04-16T18:22:17.389Z,9.31
2018-04-16T18:28:08.298Z,11.06
2018-04-16T18:33:59.235Z,10.89
2018-04-16T18:39:50.091Z,8.27
2018-04-16T18:45:41.051Z,10.16
2018-04-16T18:51:31.882Z,11.09
2018-04-16T18:57:22.800Z,13.68
2018-04-16T19:03:13.711Z,12.04
2018-04-16T19:09:04.644Z,11.32
2018-04-16T19:14:55.470Z,10.93
2018-04-16T19:20:46.427Z,11.62
2018-04-16T19:26:37.268Z,10.8
2018-04-16T19:32:28.213Z,10.45
2018-04-16T19:38:19.104Z,9.78
2018-04-16T19:44:10.002Z,9.24
2018-04-16T19:50:00.879Z,13.81
2018-04-16T19:55:51.827Z,16.29
2018-04-16T20:01:42.696Z,14.48
2018-04-16T20:07:33.671Z,10.56
2018-04-16T20:13:24.539Z,12
2018-04-16T20:19:15.430Z,11.14
2018-04-16T20:25:06.314Z,10.23
2018-04-16T20:30:57.306Z,9.52
2018-04-16T20:36:48.144Z,10.99
2018-04-16T20:42:39.021Z,9.29
2018-04-16T20:48:29.911Z,7.33
2018-04-16T20:54:20.841Z,8.48
2018-04-16T21:00:11.759Z,10.55
2018-04-16T21:06:02.671Z,10.02
2018-04-16T21:11:53.517Z,9.56
2018-04-16T21:17:44.482Z,9.3
2018-04-16T21:23:35.342Z,8.66
2018-04-16T21:29:26.272Z,9.75
2018-04-16T21:35:17.221Z,8.41
2018-04-16T21:41:08.093Z,8.46
2018-04-16T21:46:58.925Z,8.35
2018-04-16T21:52:49.853Z,8.32
2018-04-16T21:58:40.773Z,9.35
2018-04-16T22:04:31.641Z,8.54
2018-04-16T22:10:22.605Z,7.72
2018-04-16T22:16:13.511Z,7.6
2018-04-16T22:22:04.435Z,7.96
2018-04-16T22:27:55.296Z,8.74
2018-04-16T22:33:46.167Z,7.82
2018-04-16T22:39:37.025Z,8.56
2018-04-16T22:45:27.972Z,7.69
2018-04-16T22:51:18.832Z,8.55
2018-04-16T22:57:09.802Z,8.07
2018-04-16T23:03:00.665Z,8.38
2018-04-16T23:08:51.536Z,8.8
2018-04-16T23:14:42.472Z,8.86
2018-04-16T23:20:33.341Z,8.33
2018-04-16T23:26:24.250Z,7.79
2018-04-16T23:32:15.189Z,7.54
2018-04-16T23:38:06.072Z,8
2018-04-16T23:43:56.975Z,7.25
2018-04-16T23:49:47.862Z,7.04
2018-04-16T23:55:38.800Z,8.02
